Etusivu
METAR-TAF:

METAR-TAF

Lentoasemat :

Municipal_Airport

Socorro, New Mexico, Yhdysvallat

Leveyspiiri: 34-01N, Pituuspiiri: 106-54W, korkeus merenpinnasta: 1478 m

Tämänhetkinen sää

Tämä raportti tehtiin 23 minuuttia sitten, kello 08.35 UTC
tyyntä
Lämpötila 25°C
Kosteus 34%
Ilmanpaine 1020 hPa
Näkyvyys: 16.1 km
selkeää

METAR: KONM 200835Z AUTO 00000KT 10SM CLR 25/08 A3011 RMK AO2 T02530077

Aika: 02:58 (08:58 UTC)


TAF: puuttuu

Säähavainnot ja -ennusteet yli 4000 lentoasemalta (METAR- ja TAF-raportit).

Käytössä olevat sääasemat on merkitty karttaan keltaisilla ja punaisilla pisteillä.

Aseta hiiri pisteen päälle nähdäksesi sääaseman nimen.

Klikkaa sitten nähdäksesi säähavainnot ja -ennusteet.

Kartan vaihtaminen: klikkaa mustalla rastilla varustettuja vihreitä pisteitä, niin voit zoomata sisään; viivalla varustettua vihreää pistettä, niin voit zoomata ulos tai vihreitä nuolia, niin pääset viereisille kartoille.


METAR-TAF: